createdAt,value
2018-02-10T00:01:00.897Z,64.72
2018-02-10T00:03:27.201Z,65.09
2018-02-10T00:05:53.547Z,65.30
2018-02-10T00:08:19.869Z,65.15
2018-02-10T00:10:46.163Z,65.13
2018-02-10T00:13:12.486Z,65.09
2018-02-10T00:15:38.769Z,64.67
2018-02-10T00:18:05.027Z,64.51
2018-02-10T00:20:31.279Z,64.23
2018-02-10T00:22:57.572Z,64.09
2018-02-10T00:25:23.828Z,64.05
2018-02-10T00:27:50.109Z,63.57
2018-02-10T00:30:16.398Z,63.78
2018-02-10T00:32:42.692Z,63.66
2018-02-10T00:35:08.986Z,63.68
2018-02-10T00:37:36.038Z,63.87
2018-02-10T00:40:02.328Z,64.26
2018-02-10T00:42:28.622Z,64.12
2018-02-10T00:44:54.884Z,64.54
2018-02-10T00:47:22.022Z,64.22
2018-02-10T00:49:48.274Z,63.99
2018-02-10T00:52:14.557Z,64.11
2018-02-10T00:54:40.835Z,63.67
2018-02-10T00:57:07.130Z,63.07
2018-02-10T00:59:33.366Z,62.56
2018-02-10T01:01:59.616Z,61.85
2018-02-10T01:04:25.904Z,61.72
2018-02-10T01:06:52.145Z,61.32
2018-02-10T01:09:18.432Z,60.67
2018-02-10T01:11:52.476Z,60.59
2018-02-10T01:14:18.764Z,60.78
2018-02-10T01:16:45.027Z,59.62
2018-02-10T01:19:11.306Z,59.74
2018-02-10T01:21:37.570Z,59.54
2018-02-10T01:24:04.576Z,58.74
2018-02-10T01:26:30.839Z,57.75
2018-02-10T01:28:57.847Z,57.91
2018-02-10T01:31:24.227Z,58.00
2018-02-10T01:33:51.225Z,58.17
2018-02-10T01:36:17.508Z,58.86
2018-02-10T01:38:44.511Z,58.31
2018-02-10T01:41:10.747Z,58.42
2018-02-10T01:43:37.024Z,58.27
2018-02-10T01:46:03.263Z,58.55
2018-02-10T01:48:29.549Z,58.68
2018-02-10T01:50:55.835Z,57.84
2018-02-10T01:53:22.130Z,57.70
2018-02-10T01:55:49.188Z,58.18
2018-02-10T01:58:15.460Z,58.09
2018-02-10T02:00:41.732Z,58.23
2018-02-10T02:03:08.720Z,58.43
2018-02-10T02:05:35.032Z,58.92
2018-02-10T02:08:01.356Z,58.36
2018-02-10T02:10:27.610Z,58.87
2018-02-10T02:12:53.902Z,58.62
2018-02-10T02:15:20.955Z,59.08
2018-02-10T02:17:47.974Z,59.45
2018-02-10T02:20:14.220Z,59.89
2018-02-10T02:22:41.198Z,59.65
2018-02-10T02:25:07.456Z,60.00
2018-02-10T02:27:33.730Z,59.70
2018-02-10T02:30:00.733Z,59.89
2018-02-10T02:32:26.985Z,59.87
2018-02-10T02:34:53.230Z,59.44
2018-02-10T02:37:20.287Z,59.72
2018-02-10T02:39:47.279Z,59.05
2018-02-10T02:42:13.559Z,58.58
2018-02-10T02:44:39.864Z,58.66
2018-02-10T02:47:06.144Z,59.30
2018-02-10T02:49:32.421Z,59.26
2018-02-10T02:51:58.678Z,58.85
2018-02-10T02:54:25.696Z,58.63
2018-02-10T02:56:51.964Z,59.19
2018-02-10T02:59:19.004Z,59.39
2018-02-10T03:01:46.040Z,59.57
2018-02-10T03:04:12.282Z,59.17
2018-02-10T03:06:39.343Z,58.76
2018-02-10T03:09:06.382Z,58.73
2018-02-10T03:11:33.340Z,59.23
2018-02-10T03:13:59.628Z,58.91
2018-02-10T03:16:25.872Z,58.42
2018-02-10T03:18:52.144Z,58.55
2018-02-10T03:21:18.395Z,58.16
2018-02-10T03:23:44.658Z,57.85
2018-02-10T03:26:10.910Z,57.79
2018-02-10T03:28:37.907Z,57.91
2018-02-10T03:31:04.169Z,57.51
2018-02-10T03:33:31.158Z,57.31
2018-02-10T03:35:57.419Z,57.47
2018-02-10T03:38:23.681Z,57.72
2018-02-10T03:40:50.679Z,56.97
2018-02-10T03:43:16.989Z,56.94
2018-02-10T03:45:43.256Z,57.05
2018-02-10T03:48:09.565Z,56.84
2018-02-10T03:50:35.848Z,56.76
2018-02-10T03:53:02.847Z,57.23
2018-02-10T03:55:29.094Z,56.89
2018-02-10T03:57:55.356Z,57.73
2018-02-10T04:00:22.370Z,57.59
2018-02-10T04:02:48.634Z,57.28
2018-02-10T04:05:14.918Z,56.85
2018-02-10T04:07:41.174Z,57.81
2018-02-10T04:10:07.478Z,57.64
2018-02-10T04:12:33.732Z,57.05
2018-02-10T04:15:00.096Z,57.45
2018-02-10T04:17:26.393Z,57.47
2018-02-10T04:19:52.634Z,57.82
2018-02-10T04:22:18.858Z,57.27
2018-02-10T04:24:45.120Z,57.40
2018-02-10T04:27:11.404Z,57.74
2018-02-10T04:29:37.731Z,57.29
2018-02-10T04:32:03.972Z,57.18
2018-02-10T04:34:30.238Z,57.43
2018-02-10T04:36:56.525Z,57.43
2018-02-10T04:39:22.794Z,57.49
2018-02-10T04:41:49.135Z,57.75
2018-02-10T04:44:15.457Z,57.24
2018-02-10T04:46:41.752Z,56.91
2018-02-10T04:49:08.020Z,56.88
2018-02-10T04:51:35.016Z,57.24
2018-02-10T04:54:02.052Z,57.00
2018-02-10T04:56:28.338Z,56.82
2018-02-10T04:58:55.332Z,56.91
2018-02-10T05:01:21.589Z,56.60
2018-02-10T05:03:47.882Z,57.08
2018-02-10T05:06:14.156Z,56.94
2018-02-10T05:08:40.436Z,56.51
2018-02-10T05:11:06.712Z,56.31
2018-02-10T05:13:33.005Z,56.95
2018-02-10T05:15:59.274Z,57.68
2018-02-10T05:18:25.566Z,58.25
2018-02-10T05:20:51.839Z,57.77
2018-02-10T05:23:18.110Z,58.32
2018-02-10T05:25:44.389Z,58.77
2018-02-10T05:28:10.639Z,58.35
2018-02-10T05:30:37.747Z,58.24
2018-02-10T05:33:04.007Z,58.78
2018-02-10T05:35:30.281Z,58.92
2018-02-10T05:37:56.627Z,59.04
2018-02-10T05:40:23.724Z,58.97
2018-02-10T05:42:50.771Z,58.61
2018-02-10T05:45:17.771Z,58.87
2018-02-10T05:47:44.028Z,58.65
2018-02-10T05:50:10.275Z,58.72
2018-02-10T05:52:36.542Z,58.49
2018-02-10T05:55:02.814Z,57.72
2018-02-10T05:57:29.086Z,57.60
2018-02-10T05:59:55.400Z,57.30
2018-02-10T06:02:22.427Z,57.58
2018-02-10T06:04:48.704Z,58.00
2018-02-10T06:07:14.970Z,57.55
2018-02-10T06:09:41.318Z,57.81
2018-02-10T06:12:07.557Z,57.68
2018-02-10T06:14:33.826Z,58.14
2018-02-10T06:17:00.121Z,58.39
2018-02-10T06:19:27.133Z,58.18
2018-02-10T06:21:53.389Z,58.17
2018-02-10T06:24:19.629Z,58.00
2018-02-10T06:26:46.793Z,58.33
2018-02-10T06:29:13.291Z,58.48
2018-02-10T06:31:39.774Z,58.63
2018-02-10T06:34:06.206Z,58.60
2018-02-10T06:36:32.497Z,58.94
2018-02-10T06:38:58.787Z,58.98
2018-02-10T06:41:25.028Z,59.02
2018-02-10T06:43:51.307Z,58.70
2018-02-10T06:46:18.282Z,58.63
2018-02-10T06:48:44.566Z,59.08
2018-02-10T06:51:10.812Z,58.36
2018-02-10T06:53:38.087Z,58.49
2018-02-10T06:56:04.660Z,59.63
2018-02-10T06:58:31.192Z,59.61
2018-02-10T07:00:57.466Z,59.40
2018-02-10T07:03:24.493Z,58.42
2018-02-10T07:05:50.761Z,57.97
2018-02-10T07:08:17.771Z,58.28
2018-02-10T07:10:44.111Z,58.54
2018-02-10T07:13:10.528Z,58.80
2018-02-10T07:15:37.013Z,58.87
2018-02-10T07:18:03.302Z,59.74
2018-02-10T07:20:29.788Z,59.85
2018-02-10T07:22:56.241Z,59.71
2018-02-10T07:25:22.573Z,59.82
2018-02-10T07:27:48.869Z,59.52
2018-02-10T07:30:15.107Z,60.08
2018-02-10T07:32:41.386Z,59.55
2018-02-10T07:35:07.708Z,59.07
2018-02-10T07:37:33.948Z,59.48
2018-02-10T07:40:00.252Z,59.24
2018-02-10T07:42:26.700Z,59.14
2018-02-10T07:44:52.973Z,58.08
2018-02-10T07:47:19.981Z,57.21
2018-02-10T07:49:46.309Z,57.29
2018-02-10T07:52:12.560Z,57.13
2018-02-10T07:54:38.816Z,57.84
2018-02-10T07:57:05.808Z,57.58
2018-02-10T07:59:32.066Z,57.95
2018-02-10T08:01:58.427Z,57.24
2018-02-10T08:04:24.692Z,57.17
2018-02-10T08:06:51.013Z,57.97
2018-02-10T08:09:17.255Z,58.35
2018-02-10T08:11:43.538Z,58.13
2018-02-10T08:14:10.548Z,58.26
2018-02-10T08:16:37.853Z,58.72
2018-02-10T08:19:04.113Z,58.20
2018-02-10T08:21:30.403Z,58.84
2018-02-10T08:23:56.803Z,58.36
2018-02-10T08:26:24.952Z,57.38
2018-02-10T08:28:51.269Z,57.17
2018-02-10T08:31:17.535Z,56.00
2018-02-10T08:33:43.960Z,55.37
2018-02-10T08:36:10.262Z,55.26
2018-02-10T08:38:36.523Z,55.63
2018-02-10T08:41:02.868Z,55.65
2018-02-10T08:43:29.149Z,55.85
2018-02-10T08:45:56.515Z,55.59
2018-02-10T08:48:22.737Z,55.90
2018-02-10T08:50:49.076Z,54.52
2018-02-10T08:53:15.363Z,54.09
2018-02-10T08:55:41.609Z,53.65
2018-02-10T08:58:07.856Z,53.06
2018-02-10T09:00:34.153Z,53.24
2018-02-10T09:03:01.152Z,53.42
2018-02-10T09:05:27.430Z,53.46
2018-02-10T09:07:53.677Z,53.61
2018-02-10T09:10:19.970Z,53.50
2018-02-10T09:12:47.002Z,52.98
2018-02-10T09:15:13.286Z,52.37
2018-02-10T09:17:39.563Z,51.89
2018-02-10T09:20:05.847Z,52.01
2018-02-10T09:22:32.119Z,51.95
2018-02-10T09:24:58.553Z,51.50
2018-02-10T09:27:24.819Z,50.97
2018-02-10T09:29:51.819Z,50.16
2018-02-10T09:32:18.121Z,50.41
2018-02-10T09:34:44.383Z,49.57
2018-02-10T09:37:10.802Z,48.62
2018-02-10T09:39:37.162Z,47.94
2018-02-10T09:42:03.475Z,47.68
2018-02-10T09:44:29.910Z,47.77
2018-02-10T09:46:56.352Z,48.86
2018-02-10T09:49:22.664Z,48.27
2018-02-10T09:51:48.988Z,48.17
2018-02-10T09:54:15.368Z,48.67
2018-02-10T09:56:42.508Z,49.35
2018-02-10T09:59:08.796Z,49.65
2018-02-10T10:01:35.040Z,49.54
2018-02-10T10:04:01.360Z,49.75
2018-02-10T10:06:28.564Z,49.99
2018-02-10T10:08:54.852Z,50.69
2018-02-10T10:11:21.390Z,50.69
2018-02-10T10:13:47.702Z,51.46
2018-02-10T10:16:14.031Z,52.53
2018-02-10T10:18:40.337Z,51.45
2018-02-10T10:21:07.379Z,51.54
2018-02-10T10:23:34.523Z,51.42
2018-02-10T10:26:00.782Z,51.35
2018-02-10T10:28:28.958Z,52.33
2018-02-10T10:30:56.374Z,51.31
2018-02-10T10:33:22.719Z,50.91
2018-02-10T10:35:48.943Z,50.37
2018-02-10T10:38:15.318Z,50.43
2018-02-10T10:40:41.610Z,49.88
2018-02-10T10:43:09.154Z,50.65
2018-02-10T10:45:36.234Z,50.34
2018-02-10T10:48:03.238Z,47.93
2018-02-10T10:50:30.275Z,48.50
2018-02-10T10:52:56.571Z,48.85
2018-02-10T10:55:22.909Z,49.55
2018-02-10T10:57:50.260Z,48.46
2018-02-10T11:00:17.379Z,47.58
2018-02-10T11:02:43.716Z,47.97
2018-02-10T11:05:10.774Z,47.75
2018-02-10T11:07:37.768Z,46.11
2018-02-10T11:10:04.372Z,46.14
2018-02-10T11:12:30.638Z,47.07
2018-02-10T11:14:56.924Z,46.75
2018-02-10T11:17:23.922Z,47.04
2018-02-10T11:19:50.240Z,48.72
2018-02-10T11:22:16.642Z,48.96
2018-02-10T11:24:42.930Z,47.28
2018-02-10T11:27:09.198Z,46.99
2018-02-10T11:29:35.538Z,46.04
2018-02-10T11:32:01.871Z,46.81
2018-02-10T11:34:28.143Z,47.21
2018-02-10T11:36:54.539Z,47.09
2018-02-10T11:39:20.816Z,47.00
2018-02-10T11:41:47.117Z,47.17
2018-02-10T11:44:13.421Z,47.55
2018-02-10T11:46:39.772Z,47.12
2018-02-10T11:49:06.184Z,46.88
2018-02-10T11:51:32.507Z,46.59
2018-02-10T11:53:58.829Z,47.07
2018-02-10T11:56:25.886Z,46.98
2018-02-10T11:58:54.980Z,47.52
2018-02-10T12:01:21.265Z,45.73
2018-02-10T12:03:47.692Z,45.64
2018-02-10T12:06:14.020Z,45.67
2018-02-10T12:08:41.162Z,44.78
2018-02-10T12:11:07.500Z,45.79
2018-02-10T12:13:33.817Z,45.14
2018-02-10T12:16:00.093Z,45.04
2018-02-10T12:18:26.429Z,45.32
2018-02-10T12:20:52.746Z,44.98
2018-02-10T12:23:19.047Z,45.48
2018-02-10T12:25:45.335Z,45.37
2018-02-10T12:28:12.387Z,45.17
2018-02-10T12:30:39.521Z,44.37
2018-02-10T12:33:05.977Z,44.23
2018-02-10T12:35:32.602Z,43.96
2018-02-10T12:37:58.884Z,43.62
2018-02-10T12:40:25.203Z,43.40
2018-02-10T12:42:51.569Z,42.86
2018-02-10T12:45:18.018Z,43.34
2018-02-10T12:47:48.099Z,43.62
2018-02-10T12:50:14.560Z,43.92
2018-02-10T12:52:40.924Z,43.82
2018-02-10T12:55:08.003Z,43.67
2018-02-10T12:57:34.325Z,43.42
2018-02-10T13:00:02.719Z,43.69
2018-02-10T13:02:29.769Z,44.44
2018-02-10T13:04:56.191Z,43.77
2018-02-10T13:07:23.635Z,44.03
2018-02-10T13:09:50.073Z,43.76
2018-02-10T13:12:16.706Z,43.41
2018-02-10T13:14:43.024Z,43.78
2018-02-10T13:17:09.334Z,43.91
2018-02-10T13:19:35.632Z,43.46
2018-02-10T13:22:02.154Z,43.90
2018-02-10T13:24:28.462Z,44.58
2018-02-10T13:26:55.944Z,44.58
2018-02-10T13:29:22.331Z,44.43
2018-02-10T13:31:51.727Z,44.83
2018-02-10T13:34:18.011Z,45.20
2018-02-10T13:36:44.529Z,44.46
2018-02-10T13:39:10.925Z,44.65
2018-02-10T13:41:37.349Z,44.21
2018-02-10T13:44:03.675Z,43.65
2018-02-10T13:46:29.987Z,43.40
2018-02-10T13:48:57.183Z,42.49
2018-02-10T13:51:24.301Z,42.06
2018-02-10T13:53:51.553Z,42.04
2018-02-10T13:56:18.814Z,41.61
2018-02-10T13:58:46.206Z,41.52
2018-02-10T14:01:12.525Z,41.55
2018-02-10T14:03:39.585Z,41.82
2018-02-10T14:06:06.618Z,42.57
2018-02-10T14:08:33.667Z,42.38
2018-02-10T14:11:00.760Z,42.72
2018-02-10T14:13:27.177Z,42.57
2018-02-10T14:15:53.457Z,42.68
2018-02-10T14:18:19.873Z,43.26
2018-02-10T14:20:46.191Z,42.84
2018-02-10T14:23:12.517Z,42.86
2018-02-10T14:25:39.037Z,42.63
2018-02-10T14:28:05.369Z,42.44
2018-02-10T14:30:31.740Z,43.36
2018-02-10T14:32:58.918Z,44.28
2018-02-10T14:35:26.116Z,44.37
2018-02-10T14:37:52.562Z,44.52
2018-02-10T14:40:18.844Z,44.35
2018-02-10T14:42:45.876Z,44.50
2018-02-10T14:45:12.186Z,44.35
2018-02-10T14:47:38.488Z,43.97
2018-02-10T14:50:04.830Z,44.40
2018-02-10T14:52:31.956Z,44.69
2018-02-10T14:54:58.298Z,44.36
2018-02-10T14:57:24.632Z,44.50
2018-02-10T14:59:51.058Z,44.26
2018-02-10T15:02:18.829Z,44.39
2018-02-10T15:04:45.125Z,44.49
2018-02-10T15:07:12.245Z,45.03
2018-02-10T15:09:38.602Z,45.38
2018-02-10T15:12:05.008Z,45.57
2018-02-10T15:14:31.262Z,45.80
2018-02-10T15:16:57.674Z,45.85
2018-02-10T15:19:24.752Z,45.66
2018-02-10T15:21:51.117Z,45.61
2018-02-10T15:24:17.506Z,46.02
2018-02-10T15:26:44.480Z,46.19
2018-02-10T15:29:10.886Z,46.40
2018-02-10T15:31:55.834Z,46.36
2018-02-10T15:34:41.103Z,46.23
2018-02-10T15:37:07.394Z,46.22
2018-02-10T15:39:33.660Z,46.98
2018-02-10T15:41:59.955Z,46.95
2018-02-10T15:44:26.264Z,46.79
2018-02-10T15:46:53.305Z,46.89
2018-02-10T15:49:19.594Z,47.21
2018-02-10T15:51:45.899Z,47.08
2018-02-10T15:54:12.307Z,46.99
2018-02-10T15:56:39.304Z,47.21
2018-02-10T15:59:06.631Z,47.88
2018-02-10T16:01:32.997Z,47.87
2018-02-10T16:04:00.100Z,48.45
2018-02-10T16:06:26.396Z,48.45
2018-02-10T16:08:52.711Z,49.37
2018-02-10T16:11:19.812Z,49.21
2018-02-10T16:13:46.078Z,49.82
2018-02-10T16:16:12.348Z,50.12
2018-02-10T16:18:39.450Z,50.80
2018-02-10T16:21:05.732Z,51.06
2018-02-10T16:23:32.820Z,50.88
2018-02-10T16:25:59.156Z,51.46
2018-02-10T16:28:25.650Z,51.13
2018-02-10T16:30:51.956Z,51.07
2018-02-10T16:33:18.273Z,51.03
2018-02-10T16:35:44.610Z,51.11
2018-02-10T16:38:10.929Z,51.13
2018-02-10T16:40:37.408Z,51.60
2018-02-10T16:43:04.541Z,51.71
2018-02-10T16:45:30.910Z,51.53
2018-02-10T16:47:57.263Z,51.80
2018-02-10T16:50:23.524Z,51.59
2018-02-10T16:52:49.860Z,51.15
2018-02-10T16:55:16.157Z,51.98
2018-02-10T16:57:42.409Z,51.90
2018-02-10T17:00:08.711Z,51.83
2018-02-10T17:02:35.086Z,52.04
2018-02-10T17:05:01.424Z,51.90
2018-02-10T17:07:27.751Z,52.08
2018-02-10T17:09:54.059Z,52.19
2018-02-10T17:12:21.264Z,52.03
2018-02-10T17:14:48.265Z,52.11
2018-02-10T17:17:14.618Z,52.44
2018-02-10T17:19:40.902Z,52.46
2018-02-10T17:22:07.160Z,52.80
2018-02-10T17:24:33.469Z,53.26
2018-02-10T17:26:59.756Z,53.39
2018-02-10T17:29:27.177Z,53.37
2018-02-10T17:31:53.497Z,53.51
2018-02-10T17:34:19.842Z,53.51
2018-02-10T17:36:46.171Z,53.66
2018-02-10T17:39:12.503Z,53.94
2018-02-10T17:41:38.829Z,53.89
2018-02-10T17:44:05.146Z,53.78
2018-02-10T17:46:31.478Z,53.57
2018-02-10T17:48:57.795Z,53.73
2018-02-10T17:51:24.095Z,53.53
2018-02-10T17:53:50.458Z,53.77
2018-02-10T17:56:16.754Z,54.01
2018-02-10T17:58:43.071Z,53.89
2018-02-10T18:01:09.384Z,54.10
2018-02-10T18:03:35.681Z,54.28
2018-02-10T18:06:01.969Z,54.51
2018-02-10T18:08:28.334Z,54.61
2018-02-10T18:10:54.670Z,54.21
2018-02-10T18:13:20.932Z,54.50
2018-02-10T18:15:47.200Z,54.42
2018-02-10T18:18:14.222Z,54.46
2018-02-10T18:20:40.506Z,54.25
2018-02-10T18:23:06.812Z,54.62
2018-02-10T18:25:33.167Z,55.14
2018-02-10T18:27:59.429Z,54.84
2018-02-10T18:30:25.738Z,54.60
2018-02-10T18:32:52.025Z,54.84
2018-02-10T18:35:19.148Z,54.63
2018-02-10T18:37:45.559Z,54.83
2018-02-10T18:40:11.849Z,54.69
2018-02-10T18:42:38.893Z,54.81
2018-02-10T18:45:05.994Z,54.95
2018-02-10T18:47:32.379Z,54.65
2018-02-10T18:49:59.495Z,54.56
2018-02-10T18:52:25.892Z,54.63
2018-02-10T18:54:52.148Z,54.76
2018-02-10T18:57:18.450Z,54.96
2018-02-10T18:59:44.886Z,55.06
2018-02-10T19:02:11.206Z,54.94
2018-02-10T19:04:37.624Z,54.83
2018-02-10T19:07:04.698Z,54.61
2018-02-10T19:09:36.962Z,54.77
2018-02-10T19:12:03.289Z,54.94
2018-02-10T19:14:29.594Z,54.95
2018-02-10T19:16:57.631Z,54.76
2018-02-10T19:19:24.042Z,54.28
2018-02-10T19:21:50.411Z,54.12
2018-02-10T19:24:17.014Z,53.93
2018-02-10T19:26:43.425Z,53.60
2018-02-10T19:29:09.750Z,53.34
2018-02-10T19:31:36.118Z,53.56
2018-02-10T19:34:02.542Z,53.64
2018-02-10T19:36:28.816Z,53.80
2018-02-10T19:38:55.962Z,53.84
2018-02-10T19:41:23.076Z,54.03
2018-02-10T19:43:51.591Z,54.38
2018-02-10T19:46:18.619Z,54.57
2018-02-10T19:48:44.933Z,54.44
2018-02-10T19:51:11.215Z,54.57
2018-02-10T19:53:37.555Z,54.74
2018-02-10T19:56:03.877Z,54.55
2018-02-10T19:58:30.197Z,54.01
2018-02-10T20:00:57.265Z,53.99
2018-02-10T20:03:24.423Z,53.98
2018-02-10T20:05:50.775Z,53.81
2018-02-10T20:08:17.052Z,53.47
2018-02-10T20:10:43.418Z,53.70
2018-02-10T20:13:09.780Z,52.88
2018-02-10T20:15:36.137Z,53.29
2018-02-10T20:18:02.461Z,53.45
2018-02-10T20:20:28.788Z,53.76
2018-02-10T20:22:55.172Z,53.74
2018-02-10T20:25:21.634Z,53.86
2018-02-10T20:27:48.138Z,53.67
2018-02-10T20:30:14.518Z,53.18
2018-02-10T20:32:40.827Z,53.46
2018-02-10T20:35:07.184Z,53.47
2018-02-10T20:37:33.585Z,53.17
2018-02-10T20:39:59.941Z,52.89
2018-02-10T20:42:26.235Z,52.67
2018-02-10T20:44:52.565Z,53.70
2018-02-10T20:47:19.718Z,54.31
2018-02-10T20:49:46.115Z,54.48
2018-02-10T20:52:12.552Z,54.26
2018-02-10T20:54:38.915Z,54.51
2018-02-10T20:57:05.213Z,54.30
2018-02-10T20:59:31.609Z,54.63
2018-02-10T21:01:57.916Z,55.04
2018-02-10T21:04:24.247Z,54.32
2018-02-10T21:06:50.569Z,54.01
2018-02-10T21:09:17.611Z,54.13
2018-02-10T21:11:44.746Z,53.97
2018-02-10T21:14:11.214Z,54.28
2018-02-10T21:16:38.255Z,54.70
2018-02-10T21:19:04.578Z,54.67
2018-02-10T21:21:30.950Z,54.60
2018-02-10T21:23:57.308Z,54.53
2018-02-10T21:26:23.596Z,55.33
2018-02-10T21:28:49.934Z,55.46
2018-02-10T21:31:16.299Z,55.53
2018-02-10T21:33:42.576Z,55.91
2018-02-10T21:36:09.029Z,56.31
2018-02-10T21:38:35.347Z,56.30
2018-02-10T21:41:01.717Z,56.12
2018-02-10T21:43:28.081Z,56.26
2018-02-10T21:45:55.169Z,56.37
2018-02-10T21:48:21.509Z,56.13
2018-02-10T21:50:47.796Z,56.16
2018-02-10T21:53:14.870Z,55.89
2018-02-10T21:55:41.215Z,55.03
2018-02-10T21:58:07.515Z,55.12
2018-02-10T22:00:34.622Z,55.39
2018-02-10T22:03:00.944Z,55.58
2018-02-10T22:05:27.224Z,55.83
2018-02-10T22:07:53.524Z,55.59
2018-02-10T22:10:19.802Z,55.22
2018-02-10T22:12:46.149Z,54.79
2018-02-10T22:15:12.498Z,54.70
2018-02-10T22:17:39.611Z,54.69
2018-02-10T22:20:06.620Z,54.73
2018-02-10T22:22:32.949Z,55.06
2018-02-10T22:24:59.221Z,55.71
2018-02-10T22:27:25.525Z,55.04
2018-02-10T22:29:52.637Z,54.44
2018-02-10T22:32:19.676Z,55.12
2018-02-10T22:34:45.965Z,54.92
2018-02-10T22:37:13.427Z,55.31
2018-02-10T22:39:39.709Z,55.54
2018-02-10T22:42:06.031Z,56.03
2018-02-10T22:44:32.295Z,55.77
2018-02-10T22:46:59.341Z,55.39
2018-02-10T22:49:26.421Z,55.34
2018-02-10T22:51:52.835Z,55.68
2018-02-10T22:54:20.920Z,56.42
2018-02-10T22:56:47.222Z,56.65
2018-02-10T22:59:13.537Z,57.02
2018-02-10T23:01:39.778Z,57.63
2018-02-10T23:04:06.056Z,58.20
2018-02-10T23:06:32.352Z,58.69
2018-02-10T23:08:59.458Z,58.94
2018-02-10T23:11:25.833Z,58.69
2018-02-10T23:13:52.997Z,58.60
2018-02-10T23:16:19.991Z,58.60
2018-02-10T23:18:46.283Z,58.32
2018-02-10T23:21:12.543Z,57.78
2018-02-10T23:23:38.879Z,57.54
2018-02-10T23:26:05.167Z,57.27
2018-02-10T23:28:31.569Z,57.18
2018-02-10T23:30:57.817Z,57.00
2018-02-10T23:33:25.687Z,56.66
2018-02-10T23:35:51.960Z,56.77
2018-02-10T23:38:18.274Z,56.55
2018-02-10T23:40:44.574Z,56.55
2018-02-10T23:43:11.587Z,56.00
2018-02-10T23:45:37.846Z,55.71
2018-02-10T23:48:04.128Z,55.83
2018-02-10T23:50:30.463Z,56.10
2018-02-10T23:52:56.764Z,56.56
2018-02-10T23:55:23.068Z,56.75
2018-02-10T23:57:50.148Z,56.69
